GS Le Panche Castelquarto

Associazione Sportiva Dilettantistica

2019-06-02_SkyTrail_Tre_Cime_del_Covigliaio.xlsx Download


PosPettAtletaTempoMFCatAnnoSocietàPos MFPos Cat
1109Galeati Gianluca 2:20:12MM_24-491983TEAM HOKA ONE ONE/CRAZY11
2110Cominetti Nicola 2:33:04MM_24-491986TRIBO22
3131Lombardi Luca 2:33:27MM_24-49197533
428Gusmeo Thomas 2:34:49MM_24-491993G.S.A. COMETA44
5104Zorn Luca 2:36:51MM_24-491972MUGELLO OUTDOOR55
644Badini Iacopo Niccolo' 2:40:46MM_24-49197766
760Balestri Dario 2:41:02MM_24-491992MUGELLO OUTDOOR ASD77
854Casalini Claudio 2:41:29MM_OVER50196481
9141Guerri Marco 2:45:35MM_24-49197098
10114Paoli Massimiliano 2:46:08MM_24-491970A.S.D. LEOPODISTICA109
1123Braschi Claudio 2:46:39MM_OVER501969112
1262Casatori Lorenzo 2:47:33MM_24-491990GS LE PANCHE CASTELQUARTO A.S.D1210
13132Citra' Marco 2:52:15MM_24-4919851311
14139Aldrovandi Andrea 2:52:30MM_24-4919771412
15142Andergassen Rainer 2:53:03MM_24-4919741513
16126Cavallini Cristiano 2:58:00MM_24-491978ATLETICA CORRIFERRARA1614
1726Ceni Valerio 2:59:26MM_24-4919791715
18107Solaroli Maurizio 2:59:27MM_24-4919701816
1971Pratesi Fabio 2:59:50MM_OVER501968GS LE PANCHE CASTELQUARTO A.S.D193
2061Gentilini Iader 3:00:43MM_24-491972LEOPODISTICA2017
21106Varone Fausto 3:02:01MM_OVER501965214
2239Pasquali Mauro 3:02:06MM_24-491974POL COOP CERAMICA ASD2218
2320Andreoni Alberto 3:02:49MM_24-491983GS LE PANCHE CASTELQUARTO A.S.D2319
24144D'Antonio Roberto 3:04:14MM_OVER501965245
2525Poggiali Luca 3:04:36MM_OVER501962256
2642Becchi Daniele 3:05:45MM_24-4919832620
2731Gribaudi Paolo 3:08:21MM_OVER501964277
28134Toffetti Massimo 3:08:21MM_24-4919732821
29137Caciotti Daniele 3:09:05MM_24-4919732922
309Lucherini Gabriele 3:09:24MM_OVER501961MUGELLO OUTDOOR ASD308
3170Del Puglia Andrea 3:14:26MM_24-491974A.S.D. RUNNERS BARBERINO3123
3296Martinelli Pietro 3:14:36MM_24-491972BOLOGNA TRAIL TEAM A.S.D.3224
3353Bianchi Simone 3:14:50MM_24-4919783325
34102Raule Nicola 3:16:19MM_24-4919773426
3541Becchi Marco 3:17:11MM_24-4919853527
3667Checcucci Simona 3:18:29FF_24-49198711
3710Tinti Paolo 3:20:06MM_OVER501963MUGELLO OUTDOOR ASD369
381Longo Erasmo 3:21:36MM_OVER5019693710
3982Innocenti Chiara 3:22:14FF_24-4919851° E PIZZA BIKE G.S.22
40119Prini Sandro 3:22:15MM_OVER501965ATLETICA CORRIFERRARA3811
41129Leonardi Lamberto 3:22:58MM_OVER5019643912
4293Domenichini Luca 3:23:06MM_OVER5019694013
4363Morozzi Massimo 3:23:10MM_24-4919774128
44101Calore Cavazza Giovanni 3:23:34MM_24-491970BOLOGNA TRAIL TEAM A.S.D.4229
4568Papotti Cristiano 3:24:17MM_24-4919704330
4649Gucci Simone 3:25:53MM_24-491975MUGELLO OUTDOOR ASD4431
4797Berardi Alberto 3:25:54MM_24-491980BOLOGNA TRAIL TEAM A.S.D.4532
4857Pederzoli Alessandro 3:26:35MM_24-4919844633
4912Lucherini Filippo 3:28:49MM_UNDER232000MUGELLO OUTDOOR ASD471
5024Giordani Mattia 3:28:58MM_UNDER231998CSI IMOLA482
5195Baldassarri Filippo 3:29:49MM_OVER5019664914
5222Giovannini Alessandro 3:29:49MM_24-491985MUGELLO OUTDOOR ASD5034
5392Gabbi Giampaolo 3:29:49MM_24-491979MUGELLO OUTDOOR ASD5135
5437Ciolli Dario 3:30:56MM_UNDER232002523
55138Iachetta Carmine 3:32:42MM_OVER5019665315
5656Morozzi Marco 3:32:51MM_24-4919795436
5784Magarotto Matteo 3:33:20MM_24-491979BOLOGNA TRAIL TEAM A.S.D.5537
58133Aguiari Enrico 3:33:50MM_24-4919795638
5947Melli Matteo 3:35:07MM_24-4919895739
607Benassi Moreno 3:35:10MM_OVER501949MUGELLO OUTDOOR ASD5816
61121Balboni Paolo 3:36:51MM_OVER501962LOLLIAUTO ASD5917
62128Farina Vincenzo Paolo 3:37:01MM_OVER5019546018
63120Iania Andrea 3:37:49MM_24-491973A.S.D. LUIVAN SETTIGNANO6140
6455Rausse Daniela 3:39:40FF_24-491976GS MAIANO33
6587Piazzini Alessandro 3:39:41MM_OVER501965IL PONTE SCANDICCI ASD6219
6645Mattioli Stefano 3:39:45MM_OVER501956GS PIAN DI SAN BARTOLO6320
67113Fabbri Alessandro 3:41:31MM_24-4919726441
6866Grimandi Fabrizio 3:41:51MM_OVER5019656521
6927Rossi Davide 3:44:28MM_24-4919756642
70112Nini Emanuele 3:44:41MM_UNDER231996674
71103Nini Giuseppe 3:44:41MM_OVER501967A.S.D TEAM SPARTANS6822
7269Faini Paolo 3:44:47MM_OVER501968MUGELLO OUTDOOR ASD6923
7359Marzaduri Fabii 3:44:50MM_24-4919737043
7438Lazzeri Gianluca 3:44:51MM_OVER5019687124
7572Ballerini Luca 3:45:26MM_24-491995MUGELLO OUTDOOR ASD7244
76130Benvenuti Massimo 3:46:26MM_OVER5019607325
773Baroncini Fabrizio 3:47:02MM_24-491972COOP CERAMICA IMOLA7445
7850Maestri Lorenzo 3:49:02MM_24-491973MUGELLO OUTDOOR ASD7546
7990Fotia Federica 3:49:04FF_24-49199044
8094Martinelli Tommaso 3:49:50MM_24-491975BOLOGNA TRAIL TEAM A.S.D.7647
8174Cinci Nicola 3:49:54MM_24-491975GRUPPO POD. I RISORTI BUONCONVENTO A.S.D7748
8288Baldisserri Enrico 3:50:27MM_OVER501966BOLOGNA TRAIL TEAM A.S.D.7826
8333Poli Claudio 3:50:44MM_24-491977T3 TRIATHLON7949
8443Giovannardi Enrico 3:51:27MM_24-4919778050
85123Andreoli Federico 3:54:42MM_24-4919728151
8665Crocetti Corrado 3:55:09MM_OVER501966MONGHIDORO TRAIL RUNNING8227
8736Ferri Monica 3:57:56FF_OVER501967MUGELLO OUTDOOR ASD51
8858Teggi Maurizio 4:01:53MM_OVER501957ACQUADELA BOLOGNA8328
89135Ignesti Fabio 4:02:12MM_OVER5019698429
9076Gray Chris 4:04:58MM_24-491975BOLOGNA TRAIL TEAM A.S.D.8552
9183Piccioni Fabio 4:07:20MM_24-491973BOLOGNA TRAIL TEAM A.S.D.8653
922Beatini Daniele 4:07:31MM_24-4919778754
92122Moncini Francesco 4:07:31MM_24-4919888855
9429Tampieri Luca 4:08:34MM_OVER501966A.S.D. LEOPODISTICA8930
956Tattini Tiziana 4:09:18FF_OVER501953MUGELLO OUTDOOR ASD62
9619Vitelli Alessandro 4:11:06MM_24-4919709056
9746Giustini Alberto 4:11:43MM_OVER5019629131
98143Rambati Tiberio 4:11:43MM_OVER5019579232
9980Rava Patrizia 4:15:06FF_24-491976BOLOGNA TRAIL TEAM A.S.D.75
10035Bevilacqua Massimo 4:15:10MM_OVER501966TRAIL E RUNNING FORLI' ASD9333
10178Pascai Luciano 4:15:18MM_OVER501959BOLOGNA TRAIL TEAM A.S.D.9434
1024Cuccoli Sonia 4:16:51FF_OVER50196883
10352Pinzauti Silvia 4:16:53FF_24-49198196
10451Corsetti Lucia 4:19:40FF_24-491984107
105111Flamini Erik 4:20:14MM_24-491976ROMAGNA TRIATHLON CICLI NERI9557
10640Sarti Roberto 4:23:51MM_OVER5019559635
10716Rivet Sylvain 4:24:31MM_24-4919709758
108115Bargelli Massimo 4:25:33MM_OVER5019659836
10977Bagnacani Carlotta 4:25:53FF_24-491976BOLOGNA TRAIL TEAM A.S.D.118
11085Galetti Monica 4:37:33FF_OVER501967BOLOGNA TRAIL TEAM A.S.D.124
111125Carli Raffaele 4:38:52MM_OVER5019579937
11221Tomberli Luca 4:46:16MM_OVER501969MUGELLO OUTDOOR ASD10038
11398Fortini Silvia 4:50:00FF_24-491978POL.STELLA ALPINA RENAZZO139
113100Toselli Stefano 4:50:00MM_24-491970POL.STELLA ALPINA RENAZZO10159
11532Leonardi Annalisa 4:55:58FF_24-4919801410
11699Gessi Mara 4:58:41FF_OVER501967POL.STELLA ALPINA RENAZZO155
117145Capirossi Gabriele 4:58:42MM_OVER50196710239
11886Flamini Lorenzo 4:59:39MM_24-491979BOLOGNA TRAIL TEAM A.S.D.10360
11979Russello Elisa 4:59:40FF_24-491987BOLOGNA TRAIL TEAM A.S.D.1611
12081Stevani Marco 4:59:41MM_24-491979BOLOGNA TRAIL TEAM A.S.D.10461
12191Nobili Riccardo 4:59:42MM_24-491971POD. OZZANESE10562
12275Parisi Sabrina 4:59:42FF_24-491978BOLOGNA TRAIL TEAM A.S.D.1712
123108Beccari Giacomo 5:06:27MM_24-491982BOLOGNA TRAIL TEAM A.S.D.10663
12415Calò Norma 5:11:09FF_24-4919741813
125124Montanelli Reana 5:15:46FF_OVER501959196
12673Greco Concettina 5:35:57FF_24-491978GRUPPO POD. I RISORTI BUONCONVENTO A.S.D2014
127127Lezecano Ester Ramona 6:11:56FF_OVER501958217
12817Lascialfari Marco 6:20:00MM_OVER50196510740
12818Micheli Lara 6:20:00FF_OVER501968A.S.D. RUNNERS BARBERINO228
12848Tonfant Maurizio 6:20:00MM_OVER50195410841
12889Gamberini Giampaolo 6:20:00MM_OVER501961BOLOGNA TRAIL TEAM A.S.D.10942